sensor_id;sensor_type;location;lat;lon;timestamp;P1;durP1;ratioP1;P2;durP2;ratioP2
69847;SDS011;57143;55.940;37.496;2023-09-12T00:02:15;28.27;;;12.55;;
69847;SDS011;57143;55.940;37.496;2023-09-12T00:04:43;25.73;;;11.60;;
69847;SDS011;57143;55.940;37.496;2023-09-12T00:07:10;27.80;;;12.77;;
69847;SDS011;57143;55.940;37.496;2023-09-12T00:09:37;27.52;;;12.18;;
69847;SDS011;57143;55.940;37.496;2023-09-12T00:12:05;29.42;;;13.00;;
69847;SDS011;57143;55.940;37.496;2023-09-12T00:14:34;32.55;;;12.35;;
69847;SDS011;57143;55.940;37.496;2023-09-12T00:17:02;32.60;;;14.13;;
69847;SDS011;57143;55.940;37.496;2023-09-12T00:19:29;31.37;;;13.63;;
69847;SDS011;57143;55.940;37.496;2023-09-12T00:21:57;32.45;;;13.68;;
69847;SDS011;57143;55.940;37.496;2023-09-12T00:24:24;28.83;;;13.10;;
69847;SDS011;57143;55.940;37.496;2023-09-12T00:26:51;29.38;;;13.30;;
69847;SDS011;57143;55.940;37.496;2023-09-12T00:29:18;28.92;;;12.35;;
69847;SDS011;57143;55.940;37.496;2023-09-12T00:31:47;28.30;;;12.57;;
69847;SDS011;57143;55.940;37.496;2023-09-12T00:34:15;27.38;;;11.90;;
69847;SDS011;57143;55.940;37.496;2023-09-12T00:36:43;29.50;;;12.27;;
69847;SDS011;57143;55.940;37.496;2023-09-12T00:39:10;30.73;;;13.85;;
69847;SDS011;57143;55.940;37.496;2023-09-12T00:41:37;31.58;;;13.05;;
69847;SDS011;57143;55.940;37.496;2023-09-12T00:44:05;34.33;;;12.87;;
69847;SDS011;57143;55.940;37.496;2023-09-12T00:46:32;30.60;;;14.05;;
69847;SDS011;57143;55.940;37.496;2023-09-12T00:49:02;35.22;;;13.00;;
69847;SDS011;57143;55.940;37.496;2023-09-12T00:51:30;27.58;;;12.70;;
69847;SDS011;57143;55.940;37.496;2023-09-12T00:53:58;31.40;;;12.50;;
69847;SDS011;57143;55.940;37.496;2023-09-12T00:56:26;40.27;;;14.67;;
69847;SDS011;57143;55.940;37.496;2023-09-12T00:58:53;27.45;;;12.35;;
69847;SDS011;57143;55.940;37.496;2023-09-12T01:01:22;29.88;;;12.77;;
69847;SDS011;57143;55.940;37.496;2023-09-12T01:03:50;28.85;;;12.52;;
69847;SDS011;57143;55.940;37.496;2023-09-12T01:06:19;30.83;;;13.25;;
69847;SDS011;57143;55.940;37.496;2023-09-12T01:08:51;30.63;;;12.40;;
69847;SDS011;57143;55.940;37.496;2023-09-12T01:11:18;34.25;;;12.95;;
69847;SDS011;57143;55.940;37.496;2023-09-12T01:13:47;31.05;;;13.18;;
69847;SDS011;57143;55.940;37.496;2023-09-12T01:16:14;29.77;;;12.60;;
69847;SDS011;57143;55.940;37.496;2023-09-12T01:18:42;29.42;;;12.63;;
69847;SDS011;57143;55.940;37.496;2023-09-12T01:24:20;31.40;;;11.65;;
69847;SDS011;57143;55.940;37.496;2023-09-12T01:27:15;27.58;;;11.18;;
69847;SDS011;57143;55.940;37.496;2023-09-12T01:29:48;33.33;;;13.13;;
69847;SDS011;57143;55.940;37.496;2023-09-12T01:32:18;27.25;;;12.13;;
69847;SDS011;57143;55.940;37.496;2023-09-12T01:34:46;27.53;;;11.27;;
69847;SDS011;57143;55.940;37.496;2023-09-12T01:37:14;30.40;;;13.05;;
69847;SDS011;57143;55.940;37.496;2023-09-12T01:39:41;38.45;;;15.30;;
69847;SDS011;57143;55.940;37.496;2023-09-12T01:42:08;38.30;;;14.70;;
69847;SDS011;57143;55.940;37.496;2023-09-12T01:44:41;33.88;;;15.30;;
69847;SDS011;57143;55.940;37.496;2023-09-12T01:47:10;32.27;;;14.17;;
69847;SDS011;57143;55.940;37.496;2023-09-12T01:49:39;34.92;;;14.10;;
69847;SDS011;57143;55.940;37.496;2023-09-12T01:52:09;33.45;;;13.20;;
69847;SDS011;57143;55.940;37.496;2023-09-12T01:54:37;30.38;;;11.82;;
69847;SDS011;57143;55.940;37.496;2023-09-12T01:57:05;31.58;;;12.73;;
69847;SDS011;57143;55.940;37.496;2023-09-12T01:59:34;28.73;;;12.90;;
69847;SDS011;57143;55.940;37.496;2023-09-12T02:02:02;31.85;;;12.77;;
69847;SDS011;57143;55.940;37.496;2023-09-12T02:04:30;32.15;;;12.45;;
69847;SDS011;57143;55.940;37.496;2023-09-12T02:06:58;31.15;;;13.80;;
69847;SDS011;57143;55.940;37.496;2023-09-12T02:09:25;33.50;;;14.48;;
69847;SDS011;57143;55.940;37.496;2023-09-12T02:11:52;29.47;;;13.07;;
69847;SDS011;57143;55.940;37.496;2023-09-12T02:14:20;34.45;;;13.90;;
69847;SDS011;57143;55.940;37.496;2023-09-12T02:16:47;31.98;;;13.57;;
69847;SDS011;57143;55.940;37.496;2023-09-12T02:19:16;31.88;;;14.32;;
69847;SDS011;57143;55.940;37.496;2023-09-12T02:21:43;30.88;;;13.30;;
69847;SDS011;57143;55.940;37.496;2023-09-12T02:24:10;31.87;;;12.97;;
69847;SDS011;57143;55.940;37.496;2023-09-12T02:26:37;31.27;;;13.40;;
69847;SDS011;57143;55.940;37.496;2023-09-12T02:29:04;28.50;;;13.45;;
69847;SDS011;57143;55.940;37.496;2023-09-12T02:31:32;30.50;;;12.65;;
69847;SDS011;57143;55.940;37.496;2023-09-12T02:34:00;31.27;;;13.13;;
69847;SDS011;57143;55.940;37.496;2023-09-12T02:36:29;33.43;;;12.90;;
69847;SDS011;57143;55.940;37.496;2023-09-12T02:38:56;31.42;;;12.55;;
69847;SDS011;57143;55.940;37.496;2023-09-12T02:41:23;31.25;;;12.30;;
69847;SDS011;57143;55.940;37.496;2023-09-12T02:43:51;33.38;;;12.48;;
69847;SDS011;57143;55.940;37.496;2023-09-12T02:46:18;29.25;;;12.13;;
69847;SDS011;57143;55.940;37.496;2023-09-12T02:48:46;29.23;;;12.43;;
69847;SDS011;57143;55.940;37.496;2023-09-12T02:51:13;32.58;;;11.60;;
69847;SDS011;57143;55.940;37.496;2023-09-12T02:53:41;29.55;;;12.93;;
69847;SDS011;57143;55.940;37.496;2023-09-12T02:56:09;28.63;;;11.88;;
69847;SDS011;57143;55.940;37.496;2023-09-12T02:58:36;30.63;;;13.48;;
69847;SDS011;57143;55.940;37.496;2023-09-12T03:01:03;32.03;;;13.30;;
69847;SDS011;57143;55.940;37.496;2023-09-12T03:03:31;33.50;;;12.63;;
69847;SDS011;57143;55.940;37.496;2023-09-12T03:06:00;29.95;;;13.48;;
69847;SDS011;57143;55.940;37.496;2023-09-12T03:08:28;27.30;;;12.48;;
69847;SDS011;57143;55.940;37.496;2023-09-12T03:10:56;29.13;;;12.50;;
69847;SDS011;57143;55.940;37.496;2023-09-12T03:13:24;29.63;;;12.47;;
69847;SDS011;57143;55.940;37.496;2023-09-12T03:15:52;30.58;;;13.77;;
69847;SDS011;57143;55.940;37.496;2023-09-12T03:18:19;33.92;;;12.32;;
69847;SDS011;57143;55.940;37.496;2023-09-12T03:20:47;31.73;;;12.55;;
69847;SDS011;57143;55.940;37.496;2023-09-12T03:23:14;28.55;;;12.05;;
69847;SDS011;57143;55.940;37.496;2023-09-12T03:25:41;32.97;;;12.60;;
69847;SDS011;57143;55.940;37.496;2023-09-12T03:28:10;31.02;;;12.50;;
69847;SDS011;57143;55.940;37.496;2023-09-12T03:30:38;33.10;;;11.23;;
69847;SDS011;57143;55.940;37.496;2023-09-12T03:33:05;32.55;;;12.45;;
69847;SDS011;57143;55.940;37.496;2023-09-12T03:35:32;31.10;;;13.35;;
69847;SDS011;57143;55.940;37.496;2023-09-12T03:38:00;33.87;;;13.23;;
69847;SDS011;57143;55.940;37.496;2023-09-12T03:40:28;28.90;;;12.32;;
69847;SDS011;57143;55.940;37.496;2023-09-12T03:42:56;27.55;;;11.90;;
69847;SDS011;57143;55.940;37.496;2023-09-12T03:45:25;29.27;;;13.23;;
69847;SDS011;57143;55.940;37.496;2023-09-12T03:47:52;26.73;;;10.68;;
69847;SDS011;57143;55.940;37.496;2023-09-12T03:50:19;26.37;;;11.47;;
69847;SDS011;57143;55.940;37.496;2023-09-12T03:52:47;26.17;;;11.45;;
69847;SDS011;57143;55.940;37.496;2023-09-12T03:55:14;30.05;;;12.07;;
69847;SDS011;57143;55.940;37.496;2023-09-12T03:57:42;26.05;;;12.20;;
69847;SDS011;57143;55.940;37.496;2023-09-12T04:00:09;25.83;;;11.88;;
69847;SDS011;57143;55.940;37.496;2023-09-12T04:02:39;23.10;;;10.57;;
69847;SDS011;57143;55.940;37.496;2023-09-12T04:05:07;25.70;;;12.05;;
69847;SDS011;57143;55.940;37.496;2023-09-12T04:07:34;24.85;;;11.45;;
69847;SDS011;57143;55.940;37.496;2023-09-12T04:10:01;25.42;;;11.95;;
69847;SDS011;57143;55.940;37.496;2023-09-12T04:12:29;24.13;;;10.65;;
69847;SDS011;57143;55.940;37.496;2023-09-12T04:14:56;28.10;;;12.77;;
69847;SDS011;57143;55.940;37.496;2023-09-12T04:17:24;24.92;;;12.35;;
69847;SDS011;57143;55.940;37.496;2023-09-12T04:19:52;25.00;;;11.55;;
69847;SDS011;57143;55.940;37.496;2023-09-12T04:22:19;24.02;;;11.25;;
69847;SDS011;57143;55.940;37.496;2023-09-12T04:24:47;25.00;;;12.85;;
69847;SDS011;57143;55.940;37.496;2023-09-12T04:27:14;23.20;;;10.93;;
69847;SDS011;57143;55.940;37.496;2023-09-12T04:29:41;22.40;;;11.50;;
69847;SDS011;57143;55.940;37.496;2023-09-12T04:32:09;23.40;;;11.00;;
69847;SDS011;57143;55.940;37.496;2023-09-12T04:34:36;21.48;;;11.25;;
69847;SDS011;57143;55.940;37.496;2023-09-12T04:37:05;22.55;;;11.68;;
69847;SDS011;57143;55.940;37.496;2023-09-12T04:39:32;23.57;;;11.57;;
69847;SDS011;57143;55.940;37.496;2023-09-12T04:41:59;23.52;;;11.30;;
69847;SDS011;57143;55.940;37.496;2023-09-12T04:44:28;23.95;;;12.50;;
69847;SDS011;57143;55.940;37.496;2023-09-12T04:46:55;28.38;;;14.00;;
69847;SDS011;57143;55.940;37.496;2023-09-12T04:49:22;25.60;;;13.48;;
69847;SDS011;57143;55.940;37.496;2023-09-12T04:51:50;26.30;;;13.93;;
69847;SDS011;57143;55.940;37.496;2023-09-12T04:54:18;25.30;;;14.05;;
69847;SDS011;57143;55.940;37.496;2023-09-12T04:56:46;26.48;;;13.48;;
69847;SDS011;57143;55.940;37.496;2023-09-12T04:59:13;27.40;;;13.10;;
69847;SDS011;57143;55.940;37.496;2023-09-12T05:01:41;23.35;;;12.57;;
69847;SDS011;57143;55.940;37.496;2023-09-12T05:04:08;23.97;;;12.40;;
69847;SDS011;57143;55.940;37.496;2023-09-12T05:06:35;20.17;;;11.82;;
69847;SDS011;57143;55.940;37.496;2023-09-12T05:09:03;20.75;;;10.48;;
69847;SDS011;57143;55.940;37.496;2023-09-12T05:11:32;21.05;;;11.27;;
69847;SDS011;57143;55.940;37.496;2023-09-12T05:14:00;19.20;;;10.55;;
69847;SDS011;57143;55.940;37.496;2023-09-12T05:16:29;20.63;;;10.90;;
69847;SDS011;57143;55.940;37.496;2023-09-12T05:18:56;22.25;;;11.20;;
69847;SDS011;57143;55.940;37.496;2023-09-12T05:21:23;21.05;;;10.95;;
69847;SDS011;57143;55.940;37.496;2023-09-12T05:23:51;21.42;;;11.52;;
69847;SDS011;57143;55.940;37.496;2023-09-12T05:26:18;21.88;;;11.40;;
69847;SDS011;57143;55.940;37.496;2023-09-12T05:28:47;22.47;;;11.83;;
69847;SDS011;57143;55.940;37.496;2023-09-12T05:31:14;22.17;;;10.98;;
69847;SDS011;57143;55.940;37.496;2023-09-12T05:33:41;22.00;;;11.15;;
69847;SDS011;57143;55.940;37.496;2023-09-12T05:36:07;23.20;;;11.23;;
69847;SDS011;57143;55.940;37.496;2023-09-12T05:38:35;22.90;;;11.85;;
69847;SDS011;57143;55.940;37.496;2023-09-12T05:41:02;21.97;;;10.73;;
69847;SDS011;57143;55.940;37.496;2023-09-12T05:43:29;21.67;;;12.25;;
69847;SDS011;57143;55.940;37.496;2023-09-12T05:45:58;24.30;;;11.55;;
69847;SDS011;57143;55.940;37.496;2023-09-12T05:48:25;20.58;;;10.20;;
69847;SDS011;57143;55.940;37.496;2023-09-12T05:50:52;19.50;;;10.65;;
69847;SDS011;57143;55.940;37.496;2023-09-12T05:53:20;21.50;;;11.17;;
69847;SDS011;57143;55.940;37.496;2023-09-12T05:55:47;21.40;;;11.15;;
69847;SDS011;57143;55.940;37.496;2023-09-12T05:58:14;22.88;;;10.95;;
69847;SDS011;57143;55.940;37.496;2023-09-12T06:00:41;20.45;;;10.70;;
69847;SDS011;57143;55.940;37.496;2023-09-12T06:03:12;22.50;;;10.88;;
69847;SDS011;57143;55.940;37.496;2023-09-12T06:05:40;22.00;;;12.23;;
69847;SDS011;57143;55.940;37.496;2023-09-12T06:08:08;23.73;;;12.20;;
69847;SDS011;57143;55.940;37.496;2023-09-12T06:10:35;24.13;;;13.23;;
69847;SDS011;57143;55.940;37.496;2023-09-12T06:13:02;27.23;;;12.98;;
69847;SDS011;57143;55.940;37.496;2023-09-12T06:15:30;22.80;;;11.95;;
69847;SDS011;57143;55.940;37.496;2023-09-12T06:17:57;22.53;;;12.17;;
69847;SDS011;57143;55.940;37.496;2023-09-12T06:20:26;21.05;;;11.77;;
69847;SDS011;57143;55.940;37.496;2023-09-12T06:22:53;25.33;;;12.73;;
69847;SDS011;57143;55.940;37.496;2023-09-12T06:25:20;25.05;;;12.55;;
69847;SDS011;57143;55.940;37.496;2023-09-12T06:27:47;22.33;;;12.90;;
69847;SDS011;57143;55.940;37.496;2023-09-12T06:30:15;23.10;;;12.37;;
69847;SDS011;57143;55.940;37.496;2023-09-12T06:32:42;22.67;;;11.82;;
69847;SDS011;57143;55.940;37.496;2023-09-12T06:35:09;25.30;;;12.98;;
69847;SDS011;57143;55.940;37.496;2023-09-12T06:37:38;22.45;;;11.88;;
69847;SDS011;57143;55.940;37.496;2023-09-12T06:40:06;19.30;;;10.75;;
69847;SDS011;57143;55.940;37.496;2023-09-12T06:42:34;23.73;;;11.07;;
69847;SDS011;57143;55.940;37.496;2023-09-12T06:45:01;24.08;;;10.68;;
69847;SDS011;57143;55.940;37.496;2023-09-12T06:47:30;23.73;;;11.60;;
69847;SDS011;57143;55.940;37.496;2023-09-12T06:49:57;25.20;;;11.73;;
69847;SDS011;57143;55.940;37.496;2023-09-12T06:52:24;22.73;;;11.02;;
69847;SDS011;57143;55.940;37.496;2023-09-12T06:54:53;19.47;;;10.47;;
69847;SDS011;57143;55.940;37.496;2023-09-12T06:57:20;21.95;;;10.70;;
69847;SDS011;57143;55.940;37.496;2023-09-12T06:59:47;17.95;;;10.43;;
69847;SDS011;57143;55.940;37.496;2023-09-12T07:02:14;21.90;;;10.48;;
69847;SDS011;57143;55.940;37.496;2023-09-12T07:04:43;19.90;;;10.43;;
69847;SDS011;57143;55.940;37.496;2023-09-12T07:07:10;19.43;;;10.80;;
69847;SDS011;57143;55.940;37.496;2023-09-12T07:09:40;22.45;;;11.07;;
69847;SDS011;57143;55.940;37.496;2023-09-12T07:12:11;19.13;;;9.80;;
69847;SDS011;57143;55.940;37.496;2023-09-12T07:14:38;22.33;;;10.95;;
69847;SDS011;57143;55.940;37.496;2023-09-12T07:17:06;21.98;;;11.15;;
69847;SDS011;57143;55.940;37.496;2023-09-12T07:19:35;20.83;;;10.73;;
69847;SDS011;57143;55.940;37.496;2023-09-12T07:22:02;18.90;;;10.52;;
69847;SDS011;57143;55.940;37.496;2023-09-12T07:24:30;18.92;;;10.30;;
69847;SDS011;57143;55.940;37.496;2023-09-12T07:26:57;19.02;;;9.80;;
69847;SDS011;57143;55.940;37.496;2023-09-12T07:29:26;19.42;;;10.02;;
69847;SDS011;57143;55.940;37.496;2023-09-12T07:31:55;18.03;;;9.40;;
69847;SDS011;57143;55.940;37.496;2023-09-12T07:34:23;21.45;;;9.27;;
69847;SDS011;57143;55.940;37.496;2023-09-12T07:36:50;19.85;;;11.18;;
69847;SDS011;57143;55.940;37.496;2023-09-12T07:39:21;22.15;;;11.75;;
69847;SDS011;57143;55.940;37.496;2023-09-12T07:41:48;21.45;;;10.40;;
69847;SDS011;57143;55.940;37.496;2023-09-12T07:44:15;22.43;;;12.07;;
69847;SDS011;57143;55.940;37.496;2023-09-12T07:46:44;19.25;;;10.77;;
69847;SDS011;57143;55.940;37.496;2023-09-12T07:49:11;21.05;;;10.65;;
69847;SDS011;57143;55.940;37.496;2023-09-12T07:51:42;21.05;;;11.13;;
69847;SDS011;57143;55.940;37.496;2023-09-12T07:54:09;22.15;;;11.07;;
69847;SDS011;57143;55.940;37.496;2023-09-12T07:56:36;20.37;;;11.20;;
69847;SDS011;57143;55.940;37.496;2023-09-12T07:59:05;23.05;;;11.63;;
69847;SDS011;57143;55.940;37.496;2023-09-12T08:01:32;20.55;;;10.82;;
69847;SDS011;57143;55.940;37.496;2023-09-12T08:04:00;18.73;;;10.50;;
69847;SDS011;57143;55.940;37.496;2023-09-12T08:06:28;20.50;;;10.75;;
69847;SDS011;57143;55.940;37.496;2023-09-12T08:08:55;20.87;;;11.50;;
69847;SDS011;57143;55.940;37.496;2023-09-12T08:11:23;21.27;;;11.25;;
69847;SDS011;57143;55.940;37.496;2023-09-12T08:13:50;23.08;;;11.45;;
69847;SDS011;57143;55.940;37.496;2023-09-12T08:16:17;22.23;;;11.32;;
69847;SDS011;57143;55.940;37.496;2023-09-12T08:18:44;21.70;;;10.85;;
69847;SDS011;57143;55.940;37.496;2023-09-12T08:21:13;20.43;;;11.47;;
69847;SDS011;57143;55.940;37.496;2023-09-12T08:23:40;25.33;;;11.98;;
69847;SDS011;57143;55.940;37.496;2023-09-12T08:26:08;22.23;;;11.23;;
69847;SDS011;57143;55.940;37.496;2023-09-12T08:28:35;22.60;;;11.95;;
69847;SDS011;57143;55.940;37.496;2023-09-12T08:31:02;20.40;;;10.70;;
69847;SDS011;57143;55.940;37.496;2023-09-12T08:33:29;22.43;;;12.27;;
69847;SDS011;57143;55.940;37.496;2023-09-12T08:35:56;21.83;;;11.65;;
69847;SDS011;57143;55.940;37.496;2023-09-12T08:38:25;24.15;;;12.13;;
69847;SDS011;57143;55.940;37.496;2023-09-12T08:40:52;25.17;;;11.82;;
69847;SDS011;57143;55.940;37.496;2023-09-12T08:43:20;21.80;;;11.63;;
69847;SDS011;57143;55.940;37.496;2023-09-12T08:45:47;24.97;;;12.17;;
69847;SDS011;57143;55.940;37.496;2023-09-12T08:48:15;26.25;;;13.02;;
69847;SDS011;57143;55.940;37.496;2023-09-12T08:50:43;22.90;;;11.77;;
69847;SDS011;57143;55.940;37.496;2023-09-12T08:53:14;28.13;;;11.95;;
69847;SDS011;57143;55.940;37.496;2023-09-12T08:55:44;21.90;;;11.18;;
69847;SDS011;57143;55.940;37.496;2023-09-12T08:58:11;22.80;;;11.97;;
69847;SDS011;57143;55.940;37.496;2023-09-12T09:00:38;24.70;;;10.68;;
69847;SDS011;57143;55.940;37.496;2023-09-12T09:03:06;20.15;;;9.88;;
69847;SDS011;57143;55.940;37.496;2023-09-12T09:05:33;19.95;;;9.90;;
69847;SDS011;57143;55.940;37.496;2023-09-12T09:08:03;21.35;;;10.00;;
69847;SDS011;57143;55.940;37.496;2023-09-12T09:10:31;24.77;;;9.50;;
69847;SDS011;57143;55.940;37.496;2023-09-12T09:13:00;19.58;;;9.73;;
69847;SDS011;57143;55.940;37.496;2023-09-12T09:15:27;21.42;;;9.85;;
69847;SDS011;57143;55.940;37.496;2023-09-12T09:17:56;25.55;;;9.18;;
69847;SDS011;57143;55.940;37.496;2023-09-12T09:20:26;16.35;;;8.70;;
69847;SDS011;57143;55.940;37.496;2023-09-12T09:22:59;19.10;;;9.07;;
69847;SDS011;57143;55.940;37.496;2023-09-12T09:25:30;18.65;;;8.13;;
69847;SDS011;57143;55.940;37.496;2023-09-12T09:27:57;21.88;;;8.63;;
69847;SDS011;57143;55.940;37.496;2023-09-12T09:30:38;17.33;;;8.45;;
69847;SDS011;57143;55.940;37.496;2023-09-12T09:33:07;17.35;;;7.13;;
69847;SDS011;57143;55.940;37.496;2023-09-12T09:35:35;15.60;;;8.53;;
69847;SDS011;57143;55.940;37.496;2023-09-12T09:38:02;17.52;;;7.88;;
69847;SDS011;57143;55.940;37.496;2023-09-12T09:40:31;16.08;;;7.30;;
69847;SDS011;57143;55.940;37.496;2023-09-12T09:43:01;18.75;;;8.23;;
69847;SDS011;57143;55.940;37.496;2023-09-12T09:45:30;18.30;;;8.43;;
69847;SDS011;57143;55.940;37.496;2023-09-12T09:47:57;16.37;;;7.43;;
69847;SDS011;57143;55.940;37.496;2023-09-12T09:50:25;15.00;;;7.82;;
69847;SDS011;57143;55.940;37.496;2023-09-12T09:52:54;16.52;;;7.82;;
69847;SDS011;57143;55.940;37.496;2023-09-12T09:55:23;21.33;;;8.40;;
69847;SDS011;57143;55.940;37.496;2023-09-12T09:57:51;16.95;;;8.73;;
69847;SDS011;57143;55.940;37.496;2023-09-12T10:00:21;16.97;;;8.20;;
69847;SDS011;57143;55.940;37.496;2023-09-12T10:02:49;17.63;;;8.13;;
69847;SDS011;57143;55.940;37.496;2023-09-12T10:05:18;15.63;;;8.70;;
69847;SDS011;57143;55.940;37.496;2023-09-12T10:07:47;16.50;;;7.85;;
69847;SDS011;57143;55.940;37.496;2023-09-12T10:10:17;14.18;;;7.32;;
69847;SDS011;57143;55.940;37.496;2023-09-12T10:12:48;18.33;;;8.63;;
69847;SDS011;57143;55.940;37.496;2023-09-12T10:15:17;15.60;;;7.57;;
69847;SDS011;57143;55.940;37.496;2023-09-12T10:17:51;13.18;;;6.97;;
69847;SDS011;57143;55.940;37.496;2023-09-12T10:20:24;18.48;;;8.02;;
69847;SDS011;57143;55.940;37.496;2023-09-12T10:22:57;16.35;;;8.05;;
69847;SDS011;57143;55.940;37.496;2023-09-12T10:25:34;18.03;;;8.63;;
69847;SDS011;57143;55.940;37.496;2023-09-12T10:28:03;16.67;;;7.43;;
69847;SDS011;57143;55.940;37.496;2023-09-12T10:30:32;15.32;;;7.68;;
69847;SDS011;57143;55.940;37.496;2023-09-12T10:33:01;16.88;;;7.93;;
69847;SDS011;57143;55.940;37.496;2023-09-12T10:35:30;16.55;;;7.15;;
69847;SDS011;57143;55.940;37.496;2023-09-12T10:37:59;17.90;;;7.37;;
69847;SDS011;57143;55.940;37.496;2023-09-12T10:40:30;17.05;;;8.23;;
69847;SDS011;57143;55.940;37.496;2023-09-12T10:43:00;15.32;;;7.40;;
69847;SDS011;57143;55.940;37.496;2023-09-12T10:45:31;14.48;;;7.25;;
69847;SDS011;57143;55.940;37.496;2023-09-12T10:47:59;15.32;;;7.28;;
69847;SDS011;57143;55.940;37.496;2023-09-12T10:50:28;14.50;;;6.83;;
69847;SDS011;57143;55.940;37.496;2023-09-12T10:52:56;15.77;;;6.80;;
69847;SDS011;57143;55.940;37.496;2023-09-12T10:55:35;13.60;;;6.82;;
69847;SDS011;57143;55.940;37.496;2023-09-12T10:58:03;15.82;;;6.45;;
69847;SDS011;57143;55.940;37.496;2023-09-12T11:00:31;15.15;;;6.50;;
69847;SDS011;57143;55.940;37.496;2023-09-12T11:03:35;16.93;;;8.00;;
69847;SDS011;57143;55.940;37.496;2023-09-12T11:06:06;16.65;;;7.85;;
69847;SDS011;57143;55.940;37.496;2023-09-12T11:11:46;17.92;;;7.70;;
69847;SDS011;57143;55.940;37.496;2023-09-12T11:14:14;16.65;;;8.45;;
69847;SDS011;57143;55.940;37.496;2023-09-12T11:16:42;16.83;;;8.27;;
69847;SDS011;57143;55.940;37.496;2023-09-12T11:19:16;27.27;;;11.25;;
69847;SDS011;57143;55.940;37.496;2023-09-12T11:21:47;18.67;;;8.90;;
69847;SDS011;57143;55.940;37.496;2023-09-12T11:24:17;20.10;;;9.02;;
69847;SDS011;57143;55.940;37.496;2023-09-12T11:26:52;17.27;;;8.52;;
69847;SDS011;57143;55.940;37.496;2023-09-12T11:29:20;19.60;;;8.97;;
69847;SDS011;57143;55.940;37.496;2023-09-12T11:31:52;15.85;;;8.80;;
69847;SDS011;57143;55.940;37.496;2023-09-12T11:34:24;21.08;;;8.63;;
69847;SDS011;57143;55.940;37.496;2023-09-12T11:36:56;19.30;;;8.05;;
69847;SDS011;57143;55.940;37.496;2023-09-12T11:39:27;20.20;;;8.98;;
69847;SDS011;57143;55.940;37.496;2023-09-12T11:41:57;18.63;;;8.73;;
69847;SDS011;57143;55.940;37.496;2023-09-12T11:44:25;19.40;;;9.32;;
69847;SDS011;57143;55.940;37.496;2023-09-12T11:47:41;20.73;;;9.65;;
69847;SDS011;57143;55.940;37.496;2023-09-12T11:50:19;19.02;;;8.73;;
69847;SDS011;57143;55.940;37.496;2023-09-12T11:52:58;20.70;;;8.98;;
69847;SDS011;57143;55.940;37.496;2023-09-12T11:55:26;17.50;;;8.47;;
69847;SDS011;57143;55.940;37.496;2023-09-12T11:57:55;16.30;;;8.27;;
69847;SDS011;57143;55.940;37.496;2023-09-12T12:00:24;16.63;;;7.85;;
69847;SDS011;57143;55.940;37.496;2023-09-12T12:02:53;13.45;;;7.10;;
69847;SDS011;57143;55.940;37.496;2023-09-12T12:05:21;16.17;;;8.07;;
69847;SDS011;57143;55.940;37.496;2023-09-12T12:07:49;17.80;;;7.43;;
69847;SDS011;57143;55.940;37.496;2023-09-12T12:10:16;16.10;;;7.30;;
69847;SDS011;57143;55.940;37.496;2023-09-12T12:12:44;15.75;;;8.13;;
69847;SDS011;57143;55.940;37.496;2023-09-12T12:15:12;16.67;;;7.50;;
69847;SDS011;57143;55.940;37.496;2023-09-12T12:17:40;16.42;;;7.70;;
69847;SDS011;57143;55.940;37.496;2023-09-12T12:20:10;16.33;;;7.53;;
69847;SDS011;57143;55.940;37.496;2023-09-12T12:22:38;17.75;;;8.18;;
69847;SDS011;57143;55.940;37.496;2023-09-12T12:25:06;20.00;;;7.57;;
69847;SDS011;57143;55.940;37.496;2023-09-12T12:27:35;16.08;;;7.55;;
69847;SDS011;57143;55.940;37.496;2023-09-12T12:30:04;17.88;;;7.28;;
69847;SDS011;57143;55.940;37.496;2023-09-12T12:32:32;15.37;;;7.50;;
69847;SDS011;57143;55.940;37.496;2023-09-12T12:35:00;15.85;;;6.82;;
69847;SDS011;57143;55.940;37.496;2023-09-12T12:37:31;16.23;;;7.32;;
69847;SDS011;57143;55.940;37.496;2023-09-12T12:39:58;14.98;;;7.25;;
69847;SDS011;57143;55.940;37.496;2023-09-12T12:42:33;14.30;;;6.78;;
69847;SDS011;57143;55.940;37.496;2023-09-12T12:45:02;15.13;;;6.63;;
69847;SDS011;57143;55.940;37.496;2023-09-12T12:47:38;16.88;;;6.53;;
69847;SDS011;57143;55.940;37.496;2023-09-12T12:50:07;13.52;;;6.30;;
69847;SDS011;57143;55.940;37.496;2023-09-12T12:52:36;18.55;;;6.78;;
69847;SDS011;57143;55.940;37.496;2023-09-12T12:55:04;11.82;;;6.10;;
69847;SDS011;57143;55.940;37.496;2023-09-12T12:57:32;12.40;;;5.97;;
69847;SDS011;57143;55.940;37.496;2023-09-12T13:00:02;13.60;;;5.95;;
69847;SDS011;57143;55.940;37.496;2023-09-12T13:02:33;14.65;;;6.20;;
69847;SDS011;57143;55.940;37.496;2023-09-12T13:05:01;13.82;;;6.70;;
69847;SDS011;57143;55.940;37.496;2023-09-12T13:07:29;15.75;;;6.60;;
69847;SDS011;57143;55.940;37.496;2023-09-12T13:09:58;16.60;;;6.30;;
69847;SDS011;57143;55.940;37.496;2023-09-12T13:12:25;15.98;;;6.60;;
69847;SDS011;57143;55.940;37.496;2023-09-12T13:14:52;13.77;;;6.35;;
69847;SDS011;57143;55.940;37.496;2023-09-12T13:17:19;12.27;;;5.90;;
69847;SDS011;57143;55.940;37.496;2023-09-12T13:19:46;13.40;;;6.63;;
69847;SDS011;57143;55.940;37.496;2023-09-12T13:22:14;13.87;;;6.70;;
69847;SDS011;57143;55.940;37.496;2023-09-12T13:24:41;15.07;;;6.32;;
69847;SDS011;57143;55.940;37.496;2023-09-12T13:27:09;14.60;;;6.90;;
69847;SDS011;57143;55.940;37.496;2023-09-12T13:29:37;14.65;;;6.47;;
69847;SDS011;57143;55.940;37.496;2023-09-12T13:32:04;15.43;;;6.90;;
69847;SDS011;57143;55.940;37.496;2023-09-12T13:34:32;15.07;;;5.63;;
69847;SDS011;57143;55.940;37.496;2023-09-12T13:36:59;18.35;;;6.38;;
69847;SDS011;57143;55.940;37.496;2023-09-12T13:39:26;12.27;;;6.50;;
69847;SDS011;57143;55.940;37.496;2023-09-12T13:41:54;13.70;;;5.85;;
69847;SDS011;57143;55.940;37.496;2023-09-12T13:44:24;14.95;;;6.32;;
69847;SDS011;57143;55.940;37.496;2023-09-12T13:46:52;14.67;;;5.93;;
69847;SDS011;57143;55.940;37.496;2023-09-12T13:49:19;15.05;;;6.97;;
69847;SDS011;57143;55.940;37.496;2023-09-12T13:51:46;13.80;;;6.40;;
69847;SDS011;57143;55.940;37.496;2023-09-12T13:54:14;15.00;;;5.65;;
69847;SDS011;57143;55.940;37.496;2023-09-12T13:56:41;16.45;;;6.50;;
69847;SDS011;57143;55.940;37.496;2023-09-12T13:59:08;12.03;;;6.30;;
69847;SDS011;57143;55.940;37.496;2023-09-12T14:01:38;11.60;;;5.75;;
69847;SDS011;57143;55.940;37.496;2023-09-12T14:04:05;13.65;;;5.80;;
69847;SDS011;57143;55.940;37.496;2023-09-12T14:06:33;12.88;;;5.88;;
69847;SDS011;57143;55.940;37.496;2023-09-12T14:09:01;13.82;;;5.95;;
69847;SDS011;57143;55.940;37.496;2023-09-12T14:11:29;9.63;;;4.77;;
69847;SDS011;57143;55.940;37.496;2023-09-12T14:13:56;10.88;;;5.43;;
69847;SDS011;57143;55.940;37.496;2023-09-12T14:16:23;13.20;;;5.93;;
69847;SDS011;57143;55.940;37.496;2023-09-12T14:18:52;10.70;;;5.28;;
69847;SDS011;57143;55.940;37.496;2023-09-12T14:21:19;13.80;;;6.47;;
69847;SDS011;57143;55.940;37.496;2023-09-12T14:23:47;12.70;;;5.73;;
69847;SDS011;57143;55.940;37.496;2023-09-12T14:26:14;13.13;;;5.30;;
69847;SDS011;57143;55.940;37.496;2023-09-12T14:28:42;15.20;;;5.45;;